Mandal, China
Current Conditions -  °F | °C
As of 1:00 AM on Monday 22 Dec 2014 (Local Time) from ZBHH Reporting Station
Clear Clear  
Wind Chill: -6°   Ceiling: Unl
Heat Index:   Visibility: 6mi
Dew Point: -4°   Wind: 4mph
Humidity: 72%   Direction: 80°E
Pressure: 30.27"   Gusts: NA
Location:  42.53°N, 110.13°E
Report Text: ZBHH 211700Z 08002MPS CAVOK M16/M20 Q1025 NOSIG
Loading
Personal Weather Stations






























Interactive Weather Map New forecast layout! Learn more

10-Day Weather Forecast

Advertisements
Track Severe Weather on mobile